East Chatham, New York
Current Conditions -  °F | °C
As of 2:54 AM on Sunday 23 Nov 2014 (Local Time) from KPSF Reporting Station
Haze Haze  
Wind Chill: 29°   Ceiling: 3400
Heat Index: 33°   Visibility: 5mi
Dew Point: 32°   Wind: 5mph
Humidity: 96%   Direction: 30°NNE
Pressure: 30.07"   Gusts: NA
Location:  42.41°N, 73.52°W
Report Text: KPSF 230754Z AUTO 03004KT 5SM BR OVC034 01/00 A3007 RMK AO2 RAE33UPB31E32 SLP192 P0000 T00060000 $
Loading
Personal Weather Stations






























Interactive Weather Map New forecast layout! Learn more

10-Day Weather Forecast

Advertisements
Track Severe Weather on mobile